• Join FlightAware (Why Join?)
  • Login
  • US Flag 
09:49AM EDT


 

Airport Tracker/Info


-or-


 

Live Flight TrackerFlight Track Log ✈ GJS3649 ✈ 11-May-2013 ✈ KBOI - KORD

Flight Track Log - Related Links

Times and Time Zones

All times are in EDT time to prevent confusion due to time zone crossing. See the GJS3649 flight status page for this flight to view local times or setup timezone preferences in your user account.

Time Position Orientation Groundspeed Altitude Reporting Facility
EDT Latitude Longitude Course Direction KTS MPH feet Rate Location/Type
09:16AM 43.5433 -116.1581 81° East 176 203 4,500  Level Salt Lake Center
09:17AM 43.5167 -116.0761 114° Southeast 217 250 6,300 1,680 Climbing Salt Lake Center
09:18AM 43.4864 -115.9881 115° Southeast 257 296 8,000 1,980 Climbing Salt Lake Center
09:19AM 43.6763 -115.3945 83° East  Level FlightAware Approximate
09:19AM 43.4789 -115.8783 95° East 289 333 10,400  Level Salt Lake Center
09:20AM 43.7004 -115.2301 81° East  Level FlightAware Approximate
09:20AM 43.5003 -115.7642 75° East 294 338 12,800  Level Salt Lake Center
09:21AM 43.7192 -115.0619 81° East  Level FlightAware Approximate
09:21AM 43.5208 -115.6533 76° East 309 356 14,500  Level Salt Lake Center
09:22AM 43.5456 -115.5186 76° East 347 399 15,800 1,320 Climbing Salt Lake Center
09:23AM 43.5697 -115.3842 76° East 372 428 17,200 1,260 Climbing Salt Lake Center
09:24AM 43.5978 -115.2314 76° East 391 450 18,400 1,320 Climbing Salt Lake Center
09:25AM 43.6228 -115.0867 77° East 400 460 19,900 1,620 Climbing Salt Lake Center
09:26AM 43.6486 -114.9431 76° East 403 464 21,700 1,680 Climbing Salt Lake Center
09:27AM 43.6781 -114.7750 76° East 404 465 23,400 1,380 Climbing Salt Lake Center
09:28AM 43.7025 -114.6306 77° East 408 470 24,600 1,020 Climbing Salt Lake Center
09:29AM 43.7278 -114.4817 77° East 416 479 25,500 900 Climbing Salt Lake Center
09:30AM 43.7583 -114.3017 77° East 434 499 26,500 900 Climbing Salt Lake Center
09:31AM 43.7850 -114.1444 77° East 439 505 27,400 840 Climbing Salt Lake Center
09:32AM 43.8117 -113.9839 77° East 448 516 28,300 960 Climbing Salt Lake Center
09:33AM 43.8431 -113.7933 77° East 449 517 29,400 1,020 Climbing Salt Lake Center
09:34AM 43.8697 -113.6331 77° East 447 514 30,400 960 Climbing Salt Lake Center
09:35AM 43.8936 -113.4733 78° East 441 507 31,400 1,020 Climbing Salt Lake Center
09:36AM 43.9231 -113.2875 78° East 442 509 32,500 960 Climbing Salt Lake Center
09:37AM 43.9464 -113.1311 78° East 434 499 33,400 900 Climbing Salt Lake Center
09:38AM 43.9722 -112.9775 77° East 428 493 34,400 780 Climbing Salt Lake Center
09:39AM 43.9983 -112.7989 78° East 422 486 35,000 240 Climbing Salt Lake Center
09:40AM 44.0231 -112.6436 77° East 429 494 35,000  Level Salt Lake Center
09:41AM 44.0464 -112.4911 78° East 424 488 35,000  Level Salt Lake Center
09:42AM 44.0728 -112.3119 78° East 425 489 35,000  Level Salt Lake Center
09:43AM 44.0897 -112.1558 81° East 426 490 35,000  Level Salt Lake Center
09:44AM 44.0900 -111.9950 90° East 432 497 35,000  Level Salt Lake Center
09:45AM 44.0914 -111.8058 89° East 438 504 35,000  Level Salt Lake Center
09:46AM 44.0925 -111.6428 89° East 442 509 35,000  Level Salt Lake Center
09:47AM 44.0933 -111.4772 90° East 449 517 35,000  Level Salt Lake Center
09:48AM 44.0939 -111.2833 90° East 453 521 35,000  Level Salt Lake Center
09:49AM 44.0944 -111.1161 90° East 454 522 35,000  Level Salt Lake Center
09:50AM 44.0939 -110.9206 90° East 456 525 35,000  Level Salt Lake Center
09:51AM 44.0931 -110.7542 90° East 454 522 35,000  Level Salt Lake Center
09:52AM 44.0922 -110.5853 90° East 457 526 35,000  Level Salt Lake Center
09:53AM 44.0919 -110.3903 90° East 453 521 35,000  Level Salt Lake Center
09:54AM 44.0911 -110.2222 90° East 456 525 35,000  Level Salt Lake Center
09:55AM 44.0897 -110.0544 91° East 454 522 35,000  Level Salt Lake Center
09:56AM 44.0872 -109.8583 91° East 454 522 35,000  Level Salt Lake Center
09:57AM 44.0861 -109.6894 90° East 456 525 35,000  Level Salt Lake Center
09:58AM 44.0839 -109.4958 91° East 451 519 35,000  Level Salt Lake Center
09:59AM 44.0803 -109.3214 92° East 450 518 35,000  Level Salt Lake Center
10:00AM 44.0783 -109.1536 91° East 454 522 35,000  Level Salt Lake Center
10:01AM 44.0753 -108.9858 91° East 455 524 35,000  Level Salt Lake Center
10:02AM 44.0714 -108.7897 92° East 455 524 35,000  Level Salt Lake Center
10:03AM 44.0675 -108.6211 92° East 457 526 35,000  Level Salt Lake Center
10:04AM 44.0628 -108.4239 92° East 458 527 35,000  Level Salt Lake Center
10:05AM 44.0583 -108.2558 92° East 458 527 35,000  Level Salt Lake Center
10:06AM 44.0539 -108.0867 92° East 459 528 35,000  Level Salt Lake Center
10:07AM 44.0489 -107.8900 92° East 458 527 35,000  Level Salt Lake Center
10:08AM 44.0442 -107.7219 92° East 459 528 35,000  Level Salt Lake Center
10:09AM 44.0389 -107.5531 92° East 458 527 35,000  Level Salt Lake Center
10:10AM 44.0331 -107.3553 92° East 460 529 35,000  Level Salt Lake Center
10:11AM 44.0283 -107.2142 93° East 457 526 35,000  Level Denver Center
10:12AM 44.0231 -107.0450 92° East 461 531 35,000  Level Denver Center
10:13AM 44.0150 -106.8406 93° East 458 527 35,000  Level Denver Center
10:14AM 44.0089 -106.6703 93° East 459 528 35,000  Level Denver Center
10:15AM 44.0022 -106.4997 93° East 461 531 35,000  Level Denver Center
10:16AM 44.0006 -106.3025 91° East 458 527 35,000  Level Denver Center
10:17AM 44.0017 -106.1322 89° East 460 529 35,000  Level Denver Center
10:18AM 44.0033 -105.9625 89° East 460 529 35,000  Level Denver Center
10:19AM 44.0036 -105.7628 90° East 462 532 35,000  Level Denver Center
10:20AM 44.0039 -105.5925 90° East 460 529 35,000  Level Denver Center
10:21AM 44.0031 -105.3925 90° East 463 533 35,000  Level Denver Center
10:22AM 44.0033 -105.2231 90° East 459 528 35,000  Level Denver Center
10:23AM 44.0033 -105.0500 90° East 465 535 35,000  Level Denver Center
10:24AM 44.0017 -104.8525 91° East 459 528 35,000  Level Denver Center
10:26AM 44.0006 -104.6822 90° East 459 528 35,000  Level Denver Center
10:27AM 43.9989 -104.4825 91° East 462 532 35,000  Level Denver Center
10:28AM 43.9983 -104.3128 90° East 461 531 35,000  Level Denver Center
10:29AM 43.9953 -104.1419 91° East 461 531 35,000  Level Denver Center
10:30AM 43.9928 -103.9428 91° East 464 534 35,000  Level Denver Center
10:31AM 43.9894 -103.7714 91° East 464 534 35,000  Level Denver Center
10:32AM 43.9867 -103.5697 91° East 467 537 35,000  Level Denver Center
10:33AM 43.9833 -103.3981 91° East 466 536 35,000  Level Denver Center
10:34AM 43.9819 -103.2264 91° East 464 534 35,000  Level Denver Center
10:35AM 43.9767 -103.0244 92° East 466 536 35,000  Level Denver Center
10:36AM 43.9739 -102.8519 91° East 467 537 35,000  Level Denver Center
10:37AM 43.9667 -102.6644 93° East 468 539 35,000  Level Denver Center
10:38AM 43.9614 -102.4817 92° East 473 544 35,000  Level Denver Center
10:39AM 43.9536 -102.2992 93° East 474 545 35,000  Level Denver Center
10:40AM 43.9475 -102.1172 93° East 474 545 35,000  Level Denver Center
10:41AM 43.9378 -101.8589 93° East 479 551 35,000  Level Denver Center
10:42AM 43.9347 -101.6781 91° East 476 548 35,000  Level Denver Center
10:43AM 43.9267 -101.4939 93° East 478 550 35,000  Level Denver Center
10:44AM 43.9214 -101.3469 93° East 478 550 35,000  Level Denver Center
10:45AM 43.9158 -101.2014 93° East 478 550 35,000  Level Minneapolis Center
10:46AM 43.9078 -101.0178 93° East 478 550 35,000  Level Minneapolis Center
10:47AM 43.9006 -100.8314 93° East 484 557 35,000  Level Minneapolis Center
10:48AM 43.8922 -100.6475 94° East 482 555 35,000  Level Minneapolis Center
10:49AM 43.8842 -100.4597 93° East 486 559 35,000  Level Minneapolis Center
10:50AM 43.8742 -100.2728 94° East 489 563 35,000  Level Minneapolis Center
10:51AM 43.8658 -100.0867 93° East 488 562 35,000  Level Minneapolis Center
10:52AM 43.8542 -99.8625 94° East 488 562 35,000  Level Minneapolis Center
10:53AM 43.8464 -99.7128 94° East 489 563 35,000  Level Minneapolis Center
10:54AM 43.8333 -99.4875 95° East 491 565 35,000  Level Minneapolis Center
10:55AM 43.8228 -99.2986 94° East 493 567 35,000  Level Minneapolis Center
10:56AM 43.8117 -99.1100 95° East 493 567 35,000  Level Minneapolis Center
10:57AM 43.8006 -98.9217 95° East 493 567 35,000  Level Minneapolis Center
10:58AM 43.7897 -98.7328 94° East 494 568 35,000  Level Minneapolis Center
10:59AM 43.7764 -98.5375 95° East 496 571 35,000  Level Minneapolis Center
11:00AM 43.7639 -98.3475 95° East 498 573 35,000  Level Minneapolis Center
11:01AM 43.7517 -98.1564 95° East 500 575 35,000  Level Minneapolis Center
11:02AM 43.7356 -97.9275 95° East 502 578 35,000  Level Minneapolis Center
11:03AM 43.7247 -97.7744 96° East 503 579 35,000  Level Minneapolis Center
11:04AM 43.7078 -97.5439 96° East 505 581 35,000  Level Minneapolis Center
11:05AM 43.6942 -97.3522 96° East 505 581 35,000  Level Minneapolis Center
11:06AM 43.6800 -97.1608 96° East 505 581 35,000  Level Minneapolis Center
11:07AM 43.6647 -96.9697 96° East 505 581 35,000  Level Minneapolis Center
11:08AM 43.6494 -96.7806 96° East 501 577 35,000  Level Minneapolis Center
11:09AM 43.6233 -96.5911 101° East 505 581 35,000  Level Minneapolis Center
11:10AM 43.5881 -96.3636 102° East 509 586 35,000  Level Minneapolis Center
11:11AM 43.5606 -96.1758 101° East 507 583 35,000  Level Minneapolis Center
11:12AM 43.5328 -95.9864 101° East 509 586 35,000  Level Minneapolis Center
11:13AM 43.5033 -95.7989 102° East 507 583 35,000  Level Minneapolis Center
11:14AM 43.4739 -95.6108 102° East 506 582 35,000  Level Minneapolis Center
11:15AM 43.4447 -95.4217 102° East 509 586 35,000  Level Minneapolis Center
11:16AM 43.4156 -95.2339 102° East 507 583 35,000  Level Minneapolis Center
11:17AM 43.3786 -95.0072 103° East 509 586 35,000  Level Minneapolis Center
11:18AM 43.3472 -94.8167 103° East 513 590 35,000  Level Minneapolis Center
11:20AM 43.3225 -94.6647 103° East 511 588 35,000  Level Minneapolis Center
11:21AM 43.2850 -94.4367 103° East 513 590 35,000  Level Minneapolis Center
11:22AM 43.2492 -94.2311 103° East 514 592 35,000  Level Minneapolis Center
11:23AM 43.2228 -94.0733 103° East 515 593 35,000  Level Minneapolis Center
11:24AM 43.1842 -93.8456 103° East 516 594 35,000  Level Minneapolis Center
11:25AM 43.1522 -93.6556 103° East 515 593 35,000  Level Minneapolis Center
11:26AM 43.1253 -93.5044 104° East 516 594 35,000  Level Minneapolis Center
11:27AM 43.0906 -93.2756 102° East 514 592 35,000  Level Minneapolis Center
11:28AM 43.0778 -93.0803 95° East 517 595 35,000  Level Minneapolis Center
11:29AM 43.0675 -92.9236 95° East 520 598 35,000  Level Minneapolis Center
11:30AM 43.0519 -92.6897 95° East 519 597 35,000 -120 Level Minneapolis Center
11:31AM 43.0350 -92.4556 96° East 519 597 34,800 -600 Descending Minneapolis Center
11:32AM 43.0206 -92.2586 96° East 523 602 33,800 -1,020 Descending Minneapolis Center
11:33AM 43.0058 -92.0569 96° East 531 611 32,800 -1,020 Descending Minneapolis Center
11:34AM 42.9914 -91.8569 96° East 531 611 31,800 -900 Descending Minneapolis Center
11:35AM 42.9764 -91.6581 96° East 525 604 31,000 -420 Descending Minneapolis Center
11:36AM 42.9600 -91.4617 96° East 517 595 31,000  Level Minneapolis Center
11:37AM 42.9431 -91.2672 97° East 514 592 31,000  Level Minneapolis Center
11:38AM 42.9231 -91.0719 98° East 518 596 31,000 -360 Level Minneapolis Center
11:39AM 42.8881 -90.8833 104° East 516 594 30,300 -1,080 Descending Minneapolis Center
11:40AM 42.8556 -90.6942 103° East 519 597 28,900 -1,440 Descending Chicago Center
11:41AM 42.8211 -90.5094 104° East 509 586 27,500 -1,380 Descending Chicago Center
11:42AM 42.7886 -90.3269 104° East 503 579 26,100 -1,380 Descending Chicago Center
11:43AM 42.7556 -90.1489 104° East 492 566 24,700 -1,020 Descending Chicago Center
11:44AM 42.7161 -89.9389 104° East 481 554 24,000 -360 Descending Chicago Center
11:45AM 42.6808 -89.7556 105° East 477 549 24,000 -1,020 Level Chicago Center
11:46AM 42.6494 -89.5844 104° East 470 541 22,000 -2,400 Descending Chicago Center
11:47AM 42.6172 -89.4156 104° East 464 534 19,200 -2,700 Descending Chicago Center
11:48AM 42.5853 -89.2517 105° East 451 519 16,500 -2,040 Descending Chicago Center
11:49AM 42.5547 -89.0986 105° East 424 488 15,100 -780 Descending Chicago Center
11:50AM 42.5139 -88.9589 112° Southeast 404 465 15,000 -1,020 Descending Chicago Center
11:51AM 42.4642 -88.7964 112° Southeast 402 463 13,100 -1,740 Descending Chicago Center
11:52AM 42.4225 -88.6592 112° Southeast 398 458 11,500 -1,500 Descending Chicago Center
11:53AM 42.3822 -88.5244 112° Southeast 389 448 10,100 -780 Descending Chicago Center
11:54AM 42.3417 -88.3944 113° Southeast 377 434 10,000 -60 Descending Chicago Center
11:55AM 42.2786 -88.2858 128° Southeast 366 421 10,000  Level Chicago Center
11:56AM 42.2128 -88.1756 129° Southeast 376 433 10,000 -300 Level Chicago Center
11:57AM 42.1458 -88.0886 136° Southeast 340 391 9,400 -1,080 Descending Chicago Center
11:58AM 42.1000 -88.0333 138° Southeast 305 351 8,400 -1,620 Descending Chicago TRACON
11:59AM 42.1000 -87.9333 90° East 315 362 7,100 -780 Descending Chicago TRACON
12:00PM 42.0833 -87.8167 101° East 322 371 7,000 -60 Descending Chicago TRACON
12:01PM 42.0833 -87.7167 90° East 311 358 7,000  Level Chicago TRACON
12:02PM 42.0833 -87.6000 90° East 314 361 7,000  Level Chicago TRACON
12:03PM 42.0833 -87.4833 90° East 300 345 7,000  Level Chicago TRACON
12:04PM 42.0833 -87.4000 90° East 252 290 7,000 -480 Level Chicago TRACON
12:05PM 42.0533 -87.3622 137° Southeast 214 246 6,200 -540 Descending Chicago Center
12:06PM 42.0019 -87.3503 170° South 193 222 6,000 -120 Descending Chicago Center
12:07PM 41.9836 -87.4158 249° West 154 177 6,000  Level Chicago Center
12:08PM 41.9828 -87.4728 269° West 155 178 6,000  Level Chicago Center
12:08PM 41.9833 -87.5167 271° West 150 173 6,000 -420 Level Chicago TRACON
12:09PM 41.9833 -87.5833 270° West 159 183 5,300 -840 Descending Chicago TRACON
12:10PM 41.9833 -87.6333 270° West 150 173 4,400 -900 Descending Chicago TRACON
12:11PM 41.9833 -87.7000 270° West 157 181 3,500 -900 Descending Chicago TRACON
12:12PM 41.9833 -87.7500 270° West 145 167 2,700 -780 Descending Chicago TRACON
12:13PM 41.9833 -87.8000 270° West 114 131 2,000 -720 Descending Chicago TRACON